Terminal Aerodrome Forecast
Issued by NWS

Home | Current Version | Previous Version | Text Only | Print | Product List | Glossary On
Versions: 1 2 3 4 5 6 7 8 9 10 11 12 13 14 15 16
000
FTPA31 PHFO 042336
TAFHMK
TAF
PHMK 042336Z 0500/0524 20010KT P6SM VCSH SCT020 BKN050 OVC150
      TEMPO 0501/0505 4SM SHRA BKN020
     FM050500 VRB04KT P6SM VCSH FEW010 SCT020 BKN050
     FM052000 20010KT P6SM FEW020 BKN050=

USA.gov is the U.S. government's official web portal to all federal, state and local government web resources and services.